Time;durP1;ratioP1;P1;durP2;ratioP2;P2;SDS_P1;SDS_P2;PMS_P1;PMS_P2;Temp;Humidity;BMP_temperature;BMP_pressure;BME280_temperature;BME280_humidity;BME280_pressure;Samples;Min_cycle;Max_cycle;Signal;HPM_P1;HPM_P2
2023/06/19 00:02:21;;;;;;;8.33;7.43;;;19.80;98.30;;;;;;5035931;28;20196;-80
2023/06/19 00:04:46;;;;;;;7.77;7.10;;;19.90;98.20;;;;;;5017388;28;20180;-81
2023/06/19 00:07:12;;;;;;;9.13;7.33;;;19.90;98.20;;;;;;5043555;28;20173;-80
2023/06/19 00:09:38;;;;;;;10.20;7.43;;;19.90;98.50;;;;;;5057560;28;20164;-81
2023/06/19 00:12:04;;;;;;;7.77;7.07;;;19.90;98.60;;;;;;5045459;28;22143;-80
2023/06/19 00:14:30;;;;;;;8.50;7.63;;;19.90;99.10;;;;;;5018922;28;20176;-80
2023/06/19 00:16:56;;;;;;;7.87;7.17;;;19.90;98.90;;;;;;5035945;28;20765;-79
2023/06/19 00:19:22;;;;;;;8.80;7.80;;;19.90;98.40;;;;;;5018383;28;20176;-80
2023/06/19 00:21:48;;;;;;;7.70;6.93;;;19.90;98.30;;;;;;5035691;28;20184;-79
2023/06/19 00:24:14;;;;;;;11.40;7.63;;;19.90;98.30;;;;;;5018261;28;20180;-79
2023/06/19 00:26:40;;;;;;;7.67;6.90;;;19.80;98.20;;;;;;5035952;28;20260;-78
2023/06/19 00:29:07;;;;;;;7.43;6.83;;;19.80;98.30;;;;;;5035249;28;20300;-79
2023/06/19 00:31:32;;;;;;;8.03;7.30;;;19.80;98.50;;;;;;5017640;28;20176;-79
2023/06/19 00:33:59;;;;;;;8.13;7.30;;;19.70;98.50;;;;;;5041244;28;20211;-80
2023/06/19 00:36:25;;;;;;;8.30;7.50;;;19.70;98.80;;;;;;5017889;28;20224;-80
2023/06/19 00:38:52;;;;;;;7.90;7.20;;;19.70;98.50;;;;;;5035043;28;20218;-79
2023/06/19 00:41:18;;;;;;;8.47;7.60;;;19.70;98.50;;;;;;5036279;28;20191;-80
2023/06/19 00:43:44;;;;;;;11.23;7.40;;;19.70;98.70;;;;;;5017000;28;20218;-80
2023/06/19 00:46:11;;;;;;;8.67;7.13;;;19.70;98.70;;;;;;5035173;28;20264;-78
2023/06/19 00:48:37;;;;;;;7.93;7.23;;;19.70;98.70;;;;;;5034977;28;20181;-80
2023/06/19 00:51:03;;;;;;;8.10;7.40;;;19.70;98.70;;;;;;5017406;28;20222;-80
2023/06/19 00:53:30;;;;;;;7.67;7.07;;;19.70;98.70;;;;;;5017147;28;20322;-80
2023/06/19 00:55:57;;;;;;;7.73;7.13;;;19.70;99.30;;;;;;5035438;28;20177;-81
2023/06/19 00:58:23;;;;;;;8.10;7.40;;;19.70;99.00;;;;;;5035781;28;20235;-79
2023/06/19 01:00:49;;;;;;;8.03;7.33;;;19.60;99.10;;;;;;5036047;28;20173;-79
2023/06/19 01:03:16;;;;;;;7.73;7.03;;;19.60;98.90;;;;;;5035078;28;20212;-78
2023/06/19 01:05:43;;;;;;;8.13;7.43;;;19.60;98.90;;;;;;5017174;28;20200;-79
2023/06/19 01:08:42;;;;;;;8.00;7.30;;;19.50;98.90;;;;;;5025549;28;20636;-81
2023/06/19 01:11:09;;;;;;;8.33;7.53;;;19.50;99.40;;;;;;5002377;28;20173;-79
2023/06/19 01:13:37;;;;;;;8.47;7.77;;;19.50;98.90;;;;;;5051302;28;20262;-78
2023/06/19 01:16:04;;;;;;;8.03;7.33;;;19.50;98.90;;;;;;5049262;28;20176;-78
2023/06/19 01:18:31;;;;;;;7.70;7.10;;;19.50;98.90;;;;;;5035570;28;20180;-78
2023/06/19 01:21:08;;;;;;;8.03;7.10;;;19.50;98.90;;;;;;5017096;28;20173;-77
2023/06/19 01:23:34;;;;;;;8.00;7.20;;;19.50;99.30;;;;;;5034386;28;20481;-78
2023/06/19 01:25:59;;;;;;;9.20;7.90;;;19.40;99.10;;;;;;5017445;28;20396;-78
2023/06/19 01:28:26;;;;;;;7.07;6.50;;;19.40;99.10;;;;;;5034944;28;20812;-79
2023/06/19 01:30:55;;;;;;;8.47;7.73;;;19.40;99.10;;;;;;5033182;28;20177;-79
2023/06/19 01:33:26;;;;;;;9.13;8.17;;;19.40;99.30;;;;;;5031547;28;20233;-79
2023/06/19 01:35:52;;;;;;;8.07;7.33;;;19.30;99.40;;;;;;5039042;28;20164;-80
2023/06/19 01:38:21;;;;;;;7.67;7.07;;;19.20;99.50;;;;;;5017597;28;20177;-80
2023/06/19 01:40:49;;;;;;;8.50;7.70;;;19.20;99.60;;;;;;5016581;28;20230;-80
2023/06/19 01:43:16;;;;;;;8.10;7.40;;;19.10;99.90;;;;;;5018096;28;20185;-79
2023/06/19 01:45:42;;;;;;;7.90;7.20;;;19.00;99.90;;;;;;5054447;28;20180;-79
2023/06/19 01:48:08;;;;;;;7.63;6.83;;;18.90;99.90;;;;;;5022716;28;20271;-80
2023/06/19 01:50:34;;;;;;;8.03;7.33;;;18.90;99.90;;;;;;5041302;28;20628;-81
2023/06/19 01:53:00;;;;;;;8.30;7.50;;;18.90;99.90;;;;;;5020999;28;20328;-78
2023/06/19 01:55:26;;;;;;;8.27;7.50;;;18.90;99.90;;;;;;5017261;28;20177;-80
2023/06/19 01:57:52;;;;;;;8.83;7.30;;;18.90;99.90;;;;;;5036560;28;20640;-80
2023/06/19 02:00:18;;;;;;;8.40;7.67;;;18.80;99.90;;;;;;5015555;28;20180;-80
2023/06/19 02:02:43;;;;;;;8.43;7.63;;;18.70;99.90;;;;;;5033648;28;20256;-80
2023/06/19 02:05:09;;;;;;;8.27;7.57;;;18.80;99.90;;;;;;5034029;28;20243;-78
2023/06/19 02:07:35;;;;;;;8.60;7.80;;;18.80;99.90;;;;;;5016284;28;20640;-82
2023/06/19 02:10:01;;;;;;;8.13;7.43;;;18.70;99.90;;;;;;5016461;28;20184;-78
2023/06/19 02:12:27;;;;;;;8.10;7.40;;;18.70;99.90;;;;;;5034051;28;20222;-81
2023/06/19 02:14:52;;;;;;;7.70;7.00;;;18.60;99.90;;;;;;5015715;28;20185;-79
2023/06/19 02:17:18;;;;;;;8.17;7.37;;;18.60;99.90;;;;;;5033635;28;20199;-81
2023/06/19 02:19:44;;;;;;;7.87;7.03;;;18.60;99.90;;;;;;5033155;28;20255;-81
2023/06/19 02:22:11;;;;;;;8.23;7.43;;;18.50;99.90;;;;;;5016372;28;20176;-80
2023/06/19 02:24:39;;;;;;;9.10;7.60;;;18.50;99.90;;;;;;5015902;28;20207;-79
2023/06/19 02:27:06;;;;;;;8.23;7.43;;;18.50;99.90;;;;;;5016361;28;20256;-79
2023/06/19 02:29:33;;;;;;;8.67;7.87;;;18.50;99.90;;;;;;5038896;28;20186;-79
2023/06/19 02:31:59;;;;;;;7.90;7.23;;;18.40;99.90;;;;;;5017776;28;20231;-78
2023/06/19 02:34:25;;;;;;;7.53;6.93;;;18.40;99.90;;;;;;5015869;28;20271;-80
2023/06/19 02:36:51;;;;;;;8.53;7.73;;;18.30;99.90;;;;;;5016771;28;20220;-79
2023/06/19 02:39:18;;;;;;;8.53;7.83;;;18.30;99.90;;;;;;5033384;28;20701;-79
2023/06/19 02:41:45;;;;;;;8.60;7.80;;;17.50;99.90;;;;;;5013968;28;20274;-78
2023/06/19 02:44:14;;;;;;;8.30;7.47;;;18.20;99.90;;;;;;5014185;28;20176;-79
2023/06/19 02:46:40;;;;;;;8.30;7.50;;;18.20;99.90;;;;;;5031893;28;20179;-80
2023/06/19 02:49:06;;;;;;;8.17;7.47;;;18.10;99.90;;;;;;5015137;28;20189;-80
2023/06/19 02:51:32;;;;;;;7.43;6.83;;;18.10;99.90;;;;;;5032512;28;20184;-78
2023/06/19 02:53:57;;;;;;;7.73;7.03;;;18.10;99.90;;;;;;5034520;28;20242;-80
2023/06/19 02:56:25;;;;;;;8.67;7.87;;;18.00;99.90;;;;;;5036614;28;20173;-79
2023/06/19 02:58:50;;;;;;;8.13;7.43;;;18.00;99.90;;;;;;5018554;28;20648;-79
2023/06/19 03:01:17;;;;;;;8.33;7.63;;;18.00;99.90;;;;;;5017719;28;20191;-83
2023/06/19 03:03:46;;;;;;;8.13;7.33;;;18.00;99.90;;;;;;5018131;28;20187;-80
2023/06/19 03:06:15;;;;;;;9.10;8.00;;;18.00;99.90;;;;;;5018181;28;20208;-79
2023/06/19 03:08:41;;;;;;;7.60;6.90;;;17.90;99.90;;;;;;5041815;28;20176;-80
2023/06/19 03:11:07;;;;;;;7.77;7.07;;;17.80;99.90;;;;;;5029738;28;20823;-79
2023/06/19 03:13:54;;;;;;;8.37;7.57;;;17.80;99.90;;;;;;5036872;28;20261;-81
2023/06/19 03:16:20;;;;;;;8.37;7.57;;;17.80;99.90;;;;;;5018554;28;20169;-79
2023/06/19 03:18:47;;;;;;;8.23;7.43;;;17.80;99.90;;;;;;5017785;28;20187;-81
2023/06/19 03:21:16;;;;;;;8.00;7.37;;;17.70;99.90;;;;;;5044238;28;20262;-79
2023/06/19 03:23:42;;;;;;;8.17;7.37;;;17.70;99.90;;;;;;5038499;28;20540;-80
2023/06/19 03:26:10;;;;;;;8.50;7.70;;;17.80;99.90;;;;;;5017916;28;20172;-79
2023/06/19 03:28:36;;;;;;;8.07;7.33;;;17.70;99.90;;;;;;5035824;28;20207;-78
2023/06/19 03:31:01;;;;;;;7.73;7.03;;;17.60;99.90;;;;;;5035493;28;20176;-80
2023/06/19 03:33:27;;;;;;;7.33;6.73;;;17.60;99.90;;;;;;5035348;28;20212;-80
2023/06/19 03:35:53;;;;;;;8.60;7.70;;;17.60;99.90;;;;;;5035530;28;20192;-78
2023/06/19 03:38:19;;;;;;;9.67;7.87;;;17.60;99.90;;;;;;5035723;28;20180;-79
2023/06/19 03:40:45;;;;;;;8.33;7.53;;;17.60;99.90;;;;;;5017710;28;20182;-79
2023/06/19 03:43:11;;;;;;;9.13;8.20;;;17.40;99.90;;;;;;5018081;28;20832;-81
2023/06/19 03:45:37;;;;;;;8.50;7.70;;;17.40;99.90;;;;;;5018419;28;20172;-80
2023/06/19 03:48:03;;;;;;;8.13;7.40;;;17.40;99.90;;;;;;5038035;28;20175;-80
2023/06/19 03:50:29;;;;;;;8.00;7.20;;;17.50;99.90;;;;;;5022249;28;20230;-81
2023/06/19 03:52:55;;;;;;;8.67;7.57;;;17.50;99.90;;;;;;5043081;28;20243;-79
2023/06/19 03:55:20;;;;;;;8.97;8.00;;;17.50;99.90;;;;;;5035671;28;20175;-80
2023/06/19 03:57:46;;;;;;;8.23;7.43;;;17.50;99.90;;;;;;5035651;28;20223;-80
2023/06/19 04:00:14;;;;;;;8.73;7.90;;;17.60;99.90;;;;;;5035111;28;20176;-79
2023/06/19 04:02:40;;;;;;;8.90;8.00;;;17.60;99.90;;;;;;5035316;28;20183;-79
2023/06/19 04:05:06;;;;;;;8.73;7.80;;;17.50;99.90;;;;;;5015885;28;20226;-79
2023/06/19 04:07:32;;;;;;;9.20;8.17;;;17.60;99.90;;;;;;5017036;28;20212;-80
2023/06/19 04:09:59;;;;;;;8.63;7.83;;;17.60;99.90;;;;;;5034579;28;20199;-81
2023/06/19 04:12:25;;;;;;;8.67;7.80;;;17.60;99.90;;;;;;5044170;28;20196;-80
2023/06/19 04:14:50;;;;;;;8.83;8.03;;;17.70;99.90;;;;;;5049914;28;20184;-80
2023/06/19 04:17:17;;;;;;;9.30;8.43;;;17.70;99.90;;;;;;5029948;28;20238;-80
2023/06/19 04:19:43;;;;;;;9.00;8.13;;;17.70;99.90;;;;;;5039112;28;20183;-80
2023/06/19 04:22:09;;;;;;;8.77;7.90;;;17.70;99.90;;;;;;5035896;28;20251;-79
2023/06/19 04:24:35;;;;;;;8.90;8.00;;;17.80;99.90;;;;;;5035300;28;20169;-79
2023/06/19 04:27:01;;;;;;;8.73;7.93;;;17.70;99.90;;;;;;5034206;28;20176;-79
2023/06/19 04:29:31;;;;;;;9.20;8.30;;;17.80;99.90;;;;;;5015977;28;20269;-79
2023/06/19 04:31:58;;;;;;;8.93;8.07;;;17.80;99.90;;;;;;5016528;28;20227;-80
2023/06/19 04:34:24;;;;;;;10.67;8.43;;;17.90;99.90;;;;;;5034239;28;20239;-81
2023/06/19 04:36:50;;;;;;;8.33;7.57;;;18.10;99.90;;;;;;5044957;28;20175;-79
2023/06/19 04:39:15;;;;;;;8.80;8.00;;;18.20;99.90;;;;;;5017073;28;20176;-79
2023/06/19 04:41:43;;;;;;;9.90;8.90;;;18.40;99.90;;;;;;5017587;28;20187;-80
2023/06/19 04:44:11;;;;;;;8.77;7.73;;;18.50;99.90;;;;;;5017053;28;20656;-80
2023/06/19 04:46:38;;;;;;;10.00;8.83;;;18.50;99.90;;;;;;5053290;28;20184;-79
2023/06/19 04:49:04;;;;;;;10.20;7.90;;;18.70;99.90;;;;;;5035682;28;20259;-78
2023/06/19 04:51:34;;;;;;;8.10;7.30;;;18.80;99.90;;;;;;5017008;28;20188;-80
2023/06/19 04:54:00;;;;;;;8.60;7.80;;;18.80;99.90;;;;;;5033871;28;20232;-79
2023/06/19 04:56:26;;;;;;;8.53;7.73;;;18.80;99.90;;;;;;5021117;28;20230;-78
2023/06/19 04:58:55;;;;;;;11.20;8.60;;;18.80;99.90;;;;;;5054289;28;20292;-79
2023/06/19 05:01:27;;;;;;;9.10;8.20;;;18.80;99.90;;;;;;5037227;28;20176;-78
2023/06/19 05:03:54;;;;;;;8.43;7.60;;;18.90;99.90;;;;;;5016902;28;20216;-77
2023/06/19 05:06:20;;;;;;;9.00;7.30;;;19.00;99.90;;;;;;5033829;28;20175;-78
2023/06/19 05:08:46;;;;;;;8.43;7.63;;;19.10;99.90;;;;;;5034070;28;20180;-78
2023/06/19 05:11:11;;;;;;;9.53;8.00;;;19.20;99.90;;;;;;5034342;28;20532;-79
2023/06/19 05:13:37;;;;;;;9.20;8.13;;;19.30;99.90;;;;;;5034208;28;20208;-79
2023/06/19 05:16:03;;;;;;;9.20;8.20;;;19.40;99.90;;;;;;5037575;28;20173;-79
2023/06/19 05:18:29;;;;;;;9.43;7.93;;;19.50;99.90;;;;;;5034913;28;20181;-79
2023/06/19 05:20:54;;;;;;;9.20;8.27;;;19.50;99.90;;;;;;5034312;28;20169;-79
2023/06/19 05:23:20;;;;;;;8.53;7.60;;;19.50;99.90;;;;;;5016482;28;20191;-79
2023/06/19 05:25:46;;;;;;;9.03;8.23;;;19.60;99.90;;;;;;5016646;28;20231;-78
2023/06/19 05:28:11;;;;;;;9.70;8.70;;;19.60;99.90;;;;;;5035635;28;20203;-79
2023/06/19 05:30:37;;;;;;;12.13;8.87;;;19.70;99.90;;;;;;5041185;28;20164;-79
2023/06/19 05:33:03;;;;;;;8.63;7.77;;;19.80;99.90;;;;;;5030908;28;20251;-76
2023/06/19 05:35:30;;;;;;;8.90;8.07;;;19.90;99.90;;;;;;5044652;28;20172;-77
2023/06/19 05:37:56;;;;;;;9.40;8.40;;;20.00;99.90;;;;;;5038010;28;20168;-75
2023/06/19 05:40:22;;;;;;;9.93;7.83;;;20.00;99.90;;;;;;5034348;28;20639;-77
2023/06/19 05:42:47;;;;;;;9.10;8.30;;;20.10;99.90;;;;;;5034933;28;20629;-77
2023/06/19 05:45:13;;;;;;;9.13;8.23;;;20.30;99.90;;;;;;5037734;28;20196;-77
2023/06/19 05:47:39;;;;;;;8.33;7.53;;;20.40;99.90;;;;;;5038485;28;20550;-77
2023/06/19 05:50:05;;;;;;;9.60;8.47;;;20.40;99.90;;;;;;5033988;28;20719;-76
2023/06/19 05:52:31;;;;;;;11.40;8.67;;;20.50;99.90;;;;;;5033454;28;20300;-76
2023/06/19 05:54:58;;;;;;;8.63;7.70;;;20.50;99.90;;;;;;5015805;28;20204;-78
2023/06/19 05:57:24;;;;;;;9.53;8.23;;;20.50;99.90;;;;;;5033790;28;20181;-78
2023/06/19 05:59:50;;;;;;;12.13;8.10;;;20.50;99.90;;;;;;5015609;28;20406;-76
2023/06/19 06:02:20;;;;;;;10.33;7.93;;;20.50;99.90;;;;;;5032794;28;20569;-77
2023/06/19 06:04:46;;;;;;;9.10;8.20;;;20.70;99.90;;;;;;5033128;28;20184;-76
2023/06/19 06:07:12;;;;;;;9.00;8.10;;;20.70;99.90;;;;;;5039696;28;20177;-76
2023/06/19 06:09:37;;;;;;;9.00;8.10;;;20.80;99.80;;;;;;5041106;28;20546;-77
2023/06/19 06:12:04;;;;;;;8.63;7.80;;;20.80;99.60;;;;;;5033740;28;20171;-77
2023/06/19 06:14:30;;;;;;;8.57;7.77;;;20.90;99.60;;;;;;5033754;28;20264;-77
2023/06/19 06:16:56;;;;;;;9.70;8.60;;;21.00;99.70;;;;;;5033327;28;20168;-76
2023/06/19 06:19:22;;;;;;;9.97;8.73;;;21.10;99.40;;;;;;5033042;28;20207;-76
2023/06/19 06:21:49;;;;;;;11.83;8.07;;;21.20;99.50;;;;;;5039939;28;20176;-77
2023/06/19 06:24:15;;;;;;;10.23;8.33;;;21.30;99.70;;;;;;5041248;28;20192;-77
2023/06/19 06:26:41;;;;;;;9.80;7.83;;;21.40;99.50;;;;;;5034835;28;20185;-77
2023/06/19 06:29:08;;;;;;;9.17;7.60;;;21.50;99.40;;;;;;5034957;28;20191;-75
2023/06/19 06:31:34;;;;;;;10.30;8.83;;;21.60;99.30;;;;;;5020200;28;20188;-77
2023/06/19 06:34:00;;;;;;;9.70;8.67;;;21.60;99.50;;;;;;5049203;28;20237;-76
2023/06/19 06:36:25;;;;;;;9.23;8.27;;;21.80;99.30;;;;;;5040664;28;20186;-76
2023/06/19 06:38:51;;;;;;;8.53;7.53;;;21.90;99.00;;;;;;5036353;28;20230;-76
2023/06/19 06:41:17;;;;;;;12.33;8.70;;;21.90;99.00;;;;;;5034848;28;20188;-78
2023/06/19 06:43:43;;;;;;;10.93;8.43;;;22.00;99.00;;;;;;5033733;28;20177;-78
2023/06/19 06:46:10;;;;;;;9.90;8.33;;;22.00;98.60;;;;;;5035019;28;20181;-76
2023/06/19 06:48:36;;;;;;;9.13;7.70;;;22.00;98.80;;;;;;5034671;28;20200;-77
2023/06/19 06:51:02;;;;;;;9.03;8.10;;;22.10;98.80;;;;;;5034797;28;20181;-76
2023/06/19 06:53:28;;;;;;;9.43;8.23;;;22.30;98.60;;;;;;5033720;28;20232;-77
2023/06/19 06:55:55;;;;;;;8.77;7.97;;;22.30;98.30;;;;;;5033765;28;20264;-77
2023/06/19 06:58:21;;;;;;;10.80;8.33;;;22.50;98.20;;;;;;5032222;28;20238;-76
2023/06/19 07:00:47;;;;;;;8.23;7.53;;;22.40;98.10;;;;;;5035250;28;20173;-77
2023/06/19 07:03:14;;;;;;;9.93;8.45;;;22.40;98.30;;;;;;5035507;28;20252;-78
2023/06/19 07:05:40;;;;;;;9.33;8.33;;;22.70;98.30;;;;;;5035560;28;20730;-77
2023/06/19 07:08:06;;;;;;;9.93;8.93;;;22.60;98.00;;;;;;5035127;28;20169;-76
2023/06/19 07:10:33;;;;;;;9.87;8.87;;;22.40;98.00;;;;;;5016767;28;20180;-77
2023/06/19 07:12:59;;;;;;;11.63;9.85;;;22.60;98.10;;;;;;5035659;28;20295;-77
2023/06/19 07:15:24;;;;;;;13.70;8.93;;;22.80;98.10;;;;;;5041417;28;20262;-76
2023/06/19 07:17:50;;;;;;;8.25;7.45;;;23.10;98.30;;;;;;5027264;28;20173;-79
2023/06/19 07:20:16;;;;;;;10.98;9.18;;;23.20;98.40;;;;;;5039401;28;20182;-77
2023/06/19 07:22:42;;;;;;;9.68;8.77;;;23.30;98.10;;;;;;5035943;28;20171;-77
2023/06/19 07:25:10;;;;;;;9.23;8.25;;;23.10;97.60;;;;;;5018122;28;20243;-76
2023/06/19 07:27:36;;;;;;;9.52;8.57;;;22.90;97.70;;;;;;5034688;28;20564;-76
2023/06/19 07:30:02;;;;;;;10.70;9.23;;;23.00;97.60;;;;;;5033737;28;20168;-78
2023/06/19 07:32:28;;;;;;;10.32;8.60;;;23.10;97.80;;;;;;5034983;28;20287;-77
2023/06/19 07:34:54;;;;;;;10.68;8.57;;;23.30;97.90;;;;;;5035127;28;20200;-77
2023/06/19 07:37:21;;;;;;;12.18;9.15;;;23.40;98.50;;;;;;5035254;28;20244;-76
2023/06/19 07:39:49;;;;;;;11.20;9.20;;;23.60;98.60;;;;;;5037245;28;20173;-76
2023/06/19 07:42:16;;;;;;;15.80;10.05;;;23.70;98.00;;;;;;5039321;28;20200;-76
2023/06/19 07:44:43;;;;;;;13.45;10.75;;;23.80;98.10;;;;;;5021749;28;20173;-78
2023/06/19 07:47:09;;;;;;;10.05;8.95;;;23.90;98.00;;;;;;5022298;28;20185;-76
2023/06/19 07:49:35;;;;;;;16.10;11.00;;;23.80;97.80;;;;;;5021037;28;20181;-77
2023/06/19 07:52:02;;;;;;;10.57;9.48;;;23.70;98.00;;;;;;5037503;28;20226;-76
2023/06/19 07:54:28;;;;;;;10.88;9.13;;;23.80;98.10;;;;;;5036688;28;20271;-78
2023/06/19 07:56:54;;;;;;;10.38;8.68;;;23.80;98.10;;;;;;5035833;28;20188;-77
2023/06/19 07:59:19;;;;;;;12.98;8.82;;;23.90;98.20;;;;;;5051551;28;20180;-79
2023/06/19 08:01:46;;;;;;;9.60;8.65;;;24.10;98.00;;;;;;5069334;28;20167;-79
2023/06/19 08:04:11;;;;;;;10.88;8.57;;;24.20;98.00;;;;;;5057173;28;20175;-77
2023/06/19 08:06:37;;;;;;;9.25;8.05;;;24.20;98.10;;;;;;5038465;28;20176;-76
2023/06/19 08:09:03;;;;;;;9.52;8.55;;;24.30;98.20;;;;;;5056440;28;20611;-77
2023/06/19 08:11:29;;;;;;;9.85;8.48;;;24.20;98.10;;;;;;5048181;28;20186;-77
2023/06/19 08:13:55;;;;;;;11.90;9.10;;;24.30;98.00;;;;;;5060212;28;20203;-77
2023/06/19 08:16:20;;;;;;;10.55;9.20;;;24.40;98.10;;;;;;5055003;28;20179;-77
2023/06/19 08:18:46;;;;;;;11.75;9.43;;;24.50;98.10;;;;;;5054360;28;20176;-77
2023/06/19 08:21:13;;;;;;;10.48;8.80;;;24.40;98.40;;;;;;5055078;28;20176;-77
2023/06/19 08:23:40;;;;;;;9.98;8.60;;;24.40;98.30;;;;;;5037119;28;20191;-76
2023/06/19 08:26:07;;;;;;;9.07;8.18;;;24.50;98.10;;;;;;5054879;28;20912;-76
2023/06/19 08:28:34;;;;;;;12.20;8.30;;;24.60;98.00;;;;;;5054457;28;20175;-78
2023/06/19 08:31:00;;;;;;;9.00;7.90;;;24.60;97.00;;;;;;5054713;28;20172;-76
2023/06/19 08:33:25;;;;;;;9.38;8.40;;;24.70;97.90;;;;;;5054504;28;20233;-77
2023/06/19 08:35:51;;;;;;;8.70;8.00;;;24.80;97.90;;;;;;5054437;28;20171;-77
2023/06/19 08:38:18;;;;;;;8.63;7.82;;;24.90;97.70;;;;;;5054483;28;20175;-77
2023/06/19 08:40:45;;;;;;;9.00;8.13;;;25.10;97.90;;;;;;5054928;28;20176;-77
2023/06/19 08:43:11;;;;;;;9.30;8.50;;;25.20;97.70;;;;;;5053889;28;20663;-76
2023/06/19 08:45:37;;;;;;;8.75;7.97;;;25.20;97.30;;;;;;5053500;28;20581;-77
2023/06/19 08:48:03;;;;;;;8.02;7.32;;;25.30;97.30;;;;;;5053205;28;20168;-77
2023/06/19 08:50:32;;;;;;;9.85;8.18;;;25.40;96.90;;;;;;5056851;28;20168;-78
2023/06/19 08:52:58;;;;;;;10.43;9.43;;;25.50;96.80;;;;;;5053666;28;20227;-78
2023/06/19 08:55:24;;;;;;;9.57;8.50;;;25.50;96.80;;;;;;5054460;28;20262;-77
2023/06/19 08:57:52;;;;;;;9.32;8.38;;;25.40;96.70;;;;;;5054100;28;20719;-78
2023/06/19 09:00:28;;;;;;;8.93;8.18;;;25.40;96.80;;;;;;5060904;28;20543;-77
2023/06/19 09:03:03;;;;;;;11.00;8.13;;;25.60;97.30;;;;;;5055195;28;20167;-78
2023/06/19 09:05:29;;;;;;;8.60;7.90;;;25.70;96.70;;;;;;5054708;28;20171;-79
2023/06/19 09:08:03;;;;;;;9.43;8.57;;;25.80;96.80;;;;;;5053529;28;20227;-77
2023/06/19 09:10:29;;;;;;;8.60;7.68;;;25.90;96.20;;;;;;5035430;28;20207;-78
2023/06/19 09:13:03;;;;;;;7.93;7.18;;;25.90;96.70;;;;;;5053882;28;20206;-77
2023/06/19 09:15:32;;;;;;;8.82;7.95;;;25.90;96.70;;;;;;5053689;28;20159;-77
2023/06/19 09:18:06;;;;;;;8.77;7.93;;;25.90;96.50;;;;;;5053268;28;20186;-78
2023/06/19 09:20:34;;;;;;;8.80;8.00;;;26.00;96.80;;;;;;5057599;28;20551;-78
2023/06/19 09:23:00;;;;;;;8.77;7.93;;;26.10;96.60;;;;;;5053748;28;20177;-77
2023/06/19 09:25:29;;;;;;;8.50;7.65;;;26.10;96.20;;;;;;5054740;28;20176;-78
2023/06/19 09:27:55;;;;;;;9.60;8.70;;;26.30;97.20;;;;;;5039773;28;20182;-77
2023/06/19 09:30:21;;;;;;;8.38;7.50;;;26.50;97.10;;;;;;5072783;28;20172;-79
2023/06/19 09:32:47;;;;;;;9.60;8.60;;;26.60;96.40;;;;;;5074723;28;20231;-78
2023/06/19 09:35:13;;;;;;;9.82;7.82;;;26.70;95.90;;;;;;5057007;28;20247;-77
2023/06/19 09:37:40;;;;;;;8.77;7.97;;;26.80;96.70;;;;;;5072009;28;20191;-78
2023/06/19 09:40:10;;;;;;;9.30;8.15;;;26.90;95.80;;;;;;5054553;28;20175;-78
2023/06/19 09:42:42;;;;;;;9.75;7.55;;;26.70;94.60;;;;;;5051865;28;20172;-78
2023/06/19 09:45:10;;;;;;;8.98;8.07;;;26.60;94.50;;;;;;5052708;28;20161;-79
2023/06/19 09:47:42;;;;;;;7.53;6.90;;;26.60;94.30;;;;;;5055039;28;20180;-79
2023/06/19 09:50:10;;;;;;;8.80;8.02;;;26.60;95.50;;;;;;5054492;28;20185;-78
2023/06/19 09:52:36;;;;;;;8.07;7.28;;;26.70;94.80;;;;;;5059459;28;20198;-79
2023/06/19 09:55:04;;;;;;;7.72;7.03;;;26.80;95.40;;;;;;5059138;28;20173;-78
2023/06/19 09:57:34;;;;;;;8.07;7.38;;;26.90;94.50;;;;;;5047776;28;20179;-78
2023/06/19 10:00:10;;;;;;;7.93;7.25;;;27.00;94.30;;;;;;5046479;28;20177;-78
2023/06/19 10:02:36;;;;;;;7.75;7.05;;;26.90;94.60;;;;;;5064298;28;20183;-79
2023/06/19 10:05:02;;;;;;;9.02;8.07;;;26.90;94.80;;;;;;5061447;28;20175;-78
2023/06/19 10:07:34;;;;;;;9.00;8.10;;;26.90;95.20;;;;;;5029850;28;20199;-77
2023/06/19 10:10:08;;;;;;;7.97;7.18;;;27.00;94.90;;;;;;5040746;28;20171;-77
2023/06/19 10:12:46;;;;;;;8.23;7.43;;;27.10;95.30;;;;;;5041262;28;20250;-76
2023/06/19 10:15:21;;;;;;;8.43;7.72;;;27.20;94.90;;;;;;5042078;28;20156;-79
2023/06/19 10:18:07;;;;;;;7.53;6.90;;;27.40;95.40;;;;;;5023025;28;20194;-79
2023/06/19 10:20:39;;;;;;;7.35;6.75;;;27.50;95.20;;;;;;5045298;28;20240;-78
2023/06/19 10:23:18;;;;;;;7.72;7.03;;;27.60;94.70;;;;;;5029474;28;20199;-78
2023/06/19 10:25:45;;;;;;;7.78;7.18;;;27.70;94.40;;;;;;5034642;28;20156;-77
2023/06/19 10:28:21;;;;;;;8.18;7.47;;;27.80;94.80;;;;;;5041101;28;20165;-77
2023/06/19 10:30:57;;;;;;;8.25;7.45;;;27.90;95.00;;;;;;5042666;28;20214;-77
2023/06/19 10:33:28;;;;;;;7.72;7.13;;;28.00;94.60;;;;;;5034433;28;20235;-77
2023/06/19 10:35:54;;;;;;;7.60;6.90;;;28.10;93.50;;;;;;5036757;28;20200;-78
2023/06/19 10:38:20;;;;;;;7.88;7.18;;;28.10;93.30;;;;;;5017695;28;20192;-77
2023/06/19 10:40:47;;;;;;;8.20;6.90;;;28.10;93.20;;;;;;5033277;28;20168;-76
2023/06/19 10:43:27;;;;;;;8.55;6.82;;;28.20;93.70;;;;;;5034052;28;20203;-76
2023/06/19 10:45:53;;;;;;;7.75;6.70;;;28.30;93.60;;;;;;5033012;28;20234;-77
2023/06/19 10:48:24;;;;;;;7.88;7.18;;;28.40;93.30;;;;;;5032294;28;20165;-79
2023/06/19 10:50:51;;;;;;;8.50;6.93;;;28.60;92.60;;;;;;5032407;28;20223;-79
2023/06/19 10:53:27;;;;;;;8.65;7.40;;;28.70;92.20;;;;;;5031640;28;20231;-78
2023/06/19 10:55:57;;;;;;;8.02;7.22;;;28.80;91.60;;;;;;5032599;28;20176;-78
2023/06/19 10:58:23;;;;;;;7.35;6.70;;;29.00;91.70;;;;;;5032359;28;20629;-76
2023/06/19 11:00:49;;;;;;;7.13;6.57;;;29.10;92.10;;;;;;5032405;28;20205;-77
2023/06/19 11:03:15;;;;;;;7.63;7.03;;;29.20;92.30;;;;;;5031742;28;20267;-76
2023/06/19 11:05:44;;;;;;;7.80;7.20;;;29.30;91.90;;;;;;5031740;28;20181;-76
2023/06/19 11:08:10;;;;;;;8.90;7.15;;;29.40;91.90;;;;;;5034119;28;20259;-77
2023/06/19 11:10:36;;;;;;;8.80;7.82;;;29.50;91.20;;;;;;5034073;28;20168;-77
2023/06/19 11:13:02;;;;;;;7.30;6.60;;;29.50;90.80;;;;;;5036342;28;20211;-77
2023/06/19 11:15:33;;;;;;;6.70;6.20;;;29.20;91.40;;;;;;5040912;28;20176;-79
2023/06/19 11:18:00;;;;;;;7.35;6.65;;;29.30;91.20;;;;;;5036432;28;20169;-78
2023/06/19 11:20:26;;;;;;;7.22;6.65;;;29.30;91.20;;;;;;5036269;28;20191;-77
2023/06/19 11:22:57;;;;;;;7.20;6.70;;;29.60;91.20;;;;;;5035681;28;20180;-78
2023/06/19 11:25:23;;;;;;;7.68;7.00;;;29.60;91.30;;;;;;5052658;28;20157;-78
2023/06/19 11:27:54;;;;;;;6.85;6.35;;;29.50;91.30;;;;;;5040228;28;20207;-77
2023/06/19 11:30:31;;;;;;;7.38;6.75;;;29.60;91.50;;;;;;5035145;28;20164;-77
2023/06/19 11:32:58;;;;;;;7.85;6.93;;;29.70;90.80;;;;;;5035419;28;20729;-78
2023/06/19 11:35:24;;;;;;;8.02;7.32;;;29.20;90.40;;;;;;5035318;28;20660;-77
2023/06/19 11:37:51;;;;;;;8.18;7.43;;;29.30;90.60;;;;;;5035151;28;20177;-77
2023/06/19 11:40:20;;;;;;;7.93;7.13;;;29.40;90.60;;;;;;5035096;28;20183;-78
2023/06/19 11:42:48;;;;;;;7.78;7.18;;;29.50;91.10;;;;;;5035129;28;20176;-77
2023/06/19 11:45:14;;;;;;;7.47;6.88;;;29.60;91.30;;;;;;5037094;28;20177;-78
2023/06/19 11:47:40;;;;;;;8.00;7.30;;;29.80;91.50;;;;;;5036510;28;20172;-78
2023/06/19 11:50:06;;;;;;;8.63;7.82;;;29.80;91.30;;;;;;5017813;28;20633;-78
2023/06/19 11:52:32;;;;;;;7.53;6.93;;;30.00;91.30;;;;;;5034701;28;20288;-77
2023/06/19 11:54:58;;;;;;;7.38;6.85;;;30.00;90.90;;;;;;5035026;28;20691;-78
2023/06/19 11:57:24;;;;;;;7.70;7.10;;;30.00;91.10;;;;;;5034927;28;20196;-76
2023/06/19 11:59:49;;;;;;;7.53;6.93;;;30.00;91.20;;;;;;5034126;28;20173;-77
2023/06/19 12:02:15;;;;;;;7.88;7.18;;;30.10;91.10;;;;;;5034832;28;20176;-77
2023/06/19 12:04:41;;;;;;;7.60;6.93;;;30.10;90.50;;;;;;5037658;28;20281;-77
2023/06/19 12:07:07;;;;;;;8.02;7.22;;;30.00;89.40;;;;;;5034868;28;20176;-78
2023/06/19 12:09:34;;;;;;;7.78;7.18;;;30.00;89.50;;;;;;5035475;28;20176;-79
2023/06/19 12:12:00;;;;;;;9.05;7.70;;;30.00;90.00;;;;;;5040344;28;20183;-77
2023/06/19 12:14:26;;;;;;;8.77;8.00;;;30.10;90.00;;;;;;5017879;28;20219;-78
2023/06/19 12:16:52;;;;;;;7.70;7.10;;;29.90;89.70;;;;;;5035083;28;20172;-77
2023/06/19 12:19:18;;;;;;;8.45;7.75;;;29.70;89.00;;;;;;5034881;28;20250;-78
2023/06/19 12:21:43;;;;;;;7.72;7.13;;;29.70;89.40;;;;;;5034882;28;20223;-77
2023/06/19 12:24:09;;;;;;;7.50;6.90;;;29.70;88.30;;;;;;5034568;28;20203;-77
2023/06/19 12:26:39;;;;;;;8.50;7.72;;;29.60;88.90;;;;;;5015907;28;20180;-79
2023/06/19 12:29:06;;;;;;;7.78;7.07;;;29.70;89.90;;;;;;5035657;28;20169;-79
2023/06/19 12:31:36;;;;;;;7.85;7.15;;;29.80;89.00;;;;;;5036613;28;20168;-79
2023/06/19 12:34:02;;;;;;;7.97;7.38;;;29.80;90.00;;;;;;5034801;28;20204;-78
2023/06/19 12:36:31;;;;;;;7.65;6.97;;;29.90;89.10;;;;;;5034515;28;20264;-78
2023/06/19 12:38:56;;;;;;;8.68;7.80;;;29.90;89.20;;;;;;5033610;28;20176;-78
2023/06/19 12:41:22;;;;;;;10.65;8.02;;;29.80;89.20;;;;;;5016719;28;20625;-77
2023/06/19 12:43:48;;;;;;;8.38;7.68;;;29.90;89.10;;;;;;5016772;28;20569;-77
2023/06/19 12:46:14;;;;;;;9.43;7.65;;;29.70;89.30;;;;;;5034119;28;20179;-77